Time;durP1;ratioP1;P1;durP2;ratioP2;P2;SDS_P1;SDS_P2;PMS_P1;PMS_P2;Temp;Humidity;BMP_temperature;BMP_pressure;BME280_temperature;BME280_humidity;BME280_pressure;Samples;Min_cycle;Max_cycle;Signal;HPM_P1;HPM_P2
2024/01/21 00:02:14;;;;;;;14.20;5.70;;;;;;;-0.10;60.63;99515.63;5346238;26;20057;-80
2024/01/21 00:04:40;;;;;;;11.93;5.20;;;;;;;0.16;59.82;99520.44;5346585;26;20105;-80
2024/01/21 00:07:07;;;;;;;12.85;5.05;;;;;;;0.09;60.13;99521.09;5346242;26;20067;-80
2024/01/21 00:09:34;;;;;;;;;;;;;;;-0.29;60.93;99516.03;5346753;26;20344;-80
2024/01/21 00:12:01;;;;;;;15.20;5.50;;;;;;;-0.10;60.59;99519.84;5346633;26;19987;-80
2024/01/21 00:14:28;;;;;;;14.43;5.37;;;;;;;0.04;59.94;99520.16;5346731;26;20044;-80
2024/01/21 00:16:55;;;;;;;16.83;5.82;;;;;;;0.14;59.70;99520.41;5346012;26;20383;-80
2024/01/21 00:19:22;;;;;;;16.45;6.43;;;;;;;0.11;59.67;99516.94;5346743;26;20411;-80
2024/01/21 00:21:49;;;;;;;15.15;6.30;;;;;;;-0.04;60.88;99513.22;5346181;26;20074;-80
2024/01/21 00:24:16;;;;;;;17.35;5.68;;;;;;;-0.14;61.70;99513.81;5346618;26;20064;-80
2024/01/21 00:26:43;;;;;;;;;;;;;;;-0.24;61.99;99505.97;5346745;26;20371;-80
2024/01/21 00:29:09;;;;;;;15.50;5.72;;;;;;;-0.53;63.00;99510.34;5346391;26;20021;-80
2024/01/21 00:31:36;;;;;;;;;;;;;;;-0.44;62.17;99510.56;5346756;26;20059;-80
2024/01/21 00:34:03;;;;;;;14.57;5.78;;;;;;;-0.81;63.15;99514.72;5346662;26;19963;-80
2024/01/21 00:36:31;;;;;;;15.65;5.87;;;;;;;-0.67;62.82;99518.44;5345857;26;20070;-80
2024/01/21 00:38:57;;;;;;;;;;;;;;;-0.30;61.02;99514.31;5347002;26;20067;-80
2024/01/21 00:41:24;;;;;;;13.40;5.37;;;;;;;-0.04;59.70;99518.28;5346426;26;19976;-80
2024/01/21 00:43:51;;;;;;;;;;;;;;;-0.13;59.62;99518.06;5346472;26;20119;-80
2024/01/21 00:46:17;;;;;;;14.18;5.30;;;;;;;-0.11;59.96;99513.03;5346626;26;19967;-80
2024/01/21 00:48:44;;;;;;;;;;;;;;;-0.76;62.42;99519.91;5346828;26;20116;-79
2024/01/21 00:51:11;;;;;;;12.43;4.83;;;;;;;-1.02;62.67;99519.22;5346191;26;19967;-80
2024/01/21 00:53:38;;;;;;;;;;;;;;;-1.01;64.10;99520.94;5346962;26;20136;-80
2024/01/21 00:56:05;;;;;;;16.60;5.72;;;;;;;-1.52;66.88;99519.53;5346377;26;19962;-79
2024/01/21 00:58:32;;;;;;;15.07;5.45;;;;;;;-1.57;67.42;99523.63;5346139;26;20082;-79
2024/01/21 01:00:58;;;;;;;14.18;6.20;;;;;;;-1.98;69.44;99513.94;5346448;26;20076;-80
2024/01/21 01:03:26;;;;;;;16.00;6.25;;;;;;;-2.01;69.78;99513.84;5346540;26;20063;-80
2024/01/21 01:05:53;;;;;;;16.00;5.97;;;;;;;-1.04;65.58;99520.87;5346004;26;20055;-80
2024/01/21 01:08:20;;;;;;;;;;;;;;;-1.49;66.77;99514.56;5346925;26;20101;-79
2024/01/21 01:10:47;;;;;;;13.45;5.28;;;;;;;-1.17;65.42;99520.53;5346582;26;19971;-79
2024/01/21 01:13:13;;;;;;;;;;;;;;;-1.22;65.39;99518.69;5346905;26;20051;-79
2024/01/21 01:15:40;;;;;;;11.73;4.85;;;;;;;-1.35;65.92;99511.56;5326709;26;19956;-79
2024/01/21 01:18:07;;;;;;;14.85;5.45;;;;;;;-1.13;64.54;99516.41;5346025;26;20060;-80
2024/01/21 01:20:34;;;;;;;13.82;5.28;;;;;;;-0.77;61.99;99515.66;5345883;26;20053;-79
2024/01/21 01:23:01;;;;;;;12.15;4.68;;;;;;;-0.93;61.91;99514.41;5346345;26;20057;-79
2024/01/21 01:25:28;;;;;;;13.88;5.25;;;;;;;-0.53;59.56;99510.34;5345981;26;20048;-79
2024/01/21 01:27:55;;;;;;;;;;;;;;;-0.81;60.37;99521.47;5346920;26;20109;-80
2024/01/21 01:30:22;;;;;;;12.98;4.87;;;;;;;-0.84;59.89;99524.78;5346364;26;19967;-80
2024/01/21 01:32:49;;;;;;;13.68;4.57;;;;;;;-0.82;59.94;99524.81;5346031;26;20053;-79
2024/01/21 01:35:16;;;;;;;11.95;4.53;;;;;;;-0.64;58.71;99527.81;5346240;26;20116;-79
2024/01/21 01:37:43;;;;;;;15.13;5.25;;;;;;;-0.81;59.76;99522.31;5346389;26;20509;-80
2024/01/21 01:40:09;;;;;;;;;;;;;;;-0.81;59.68;99521.47;5345990;26;20057;-80
2024/01/21 01:42:36;;;;;;;13.98;4.87;;;;;;;-0.46;58.51;99518.13;5346421;26;20039;-80
2024/01/21 01:45:04;;;;;;;14.10;4.87;;;;;;;-0.45;58.37;99509.69;5346227;26;20111;-79
2024/01/21 01:47:31;;;;;;;13.32;5.37;;;;;;;-0.22;57.81;99517.00;5345893;26;20060;-79
2024/01/21 01:49:58;;;;;;;13.10;5.20;;;;;;;-0.16;57.96;99520.56;5346354;26;20060;-79
2024/01/21 01:52:25;;;;;;;14.73;5.45;;;;;;;-0.42;59.36;99519.94;5346265;26;20461;-80
2024/01/21 01:54:52;;;;;;;16.58;5.72;;;;;;;-0.63;59.68;99529.56;5326123;26;20064;-79
2024/01/21 01:57:20;;;;;;;15.65;5.65;;;;;;;-0.84;60.62;99524.78;5345966;26;20064;-80
2024/01/21 01:59:47;;;;;;;14.00;5.50;;;;;;;-0.45;59.44;99526.59;5346382;26;20327;-79
2024/01/21 02:02:14;;;;;;;16.27;6.05;;;;;;;-0.15;58.44;99521.41;5345917;26;20056;-79
2024/01/21 02:04:41;;;;;;;14.55;5.85;;;;;;;0.09;57.25;99521.09;5346124;26;20400;-79
2024/01/21 02:07:08;;;;;;;14.65;5.70;;;;;;;0.10;56.99;99520.28;5345734;26;20135;-80
2024/01/21 02:09:34;;;;;;;;;;;;;;;0.24;56.03;99524.84;5346575;26;20056;-80
2024/01/21 02:12:01;;;;;;;14.45;5.50;;;;;;;0.14;56.09;99522.09;5346153;26;19972;-79
2024/01/21 02:14:28;;;;;;;13.62;5.55;;;;;;;-0.21;57.54;99512.00;5326071;26;20054;-80
2024/01/21 02:16:55;;;;;;;13.10;5.20;;;;;;;-0.52;58.60;99518.00;5346049;26;20056;-79
2024/01/21 02:19:26;;;;;;;11.63;4.78;;;;;;;-0.75;59.15;99517.41;5346264;26;20060;-79
2024/01/21 02:21:54;;;;;;;13.15;4.65;;;;;;;-0.65;59.05;99513.41;5345595;26;20331;-79
2024/01/21 02:24:21;;;;;;;14.07;5.25;;;;;;;-0.63;58.67;99506.75;5346099;26;20045;-80
2024/01/21 02:26:48;;;;;;;13.98;4.90;;;;;;;-0.92;59.33;99514.44;5326073;26;20060;-79
2024/01/21 02:29:15;;;;;;;;;;;;;;;-1.07;59.54;99505.56;5346035;26;20105;-79
2024/01/21 02:31:44;;;;;;;14.10;5.25;;;;;;;-1.30;60.92;99510.84;5346928;26;19959;-79
2024/01/21 02:34:10;;;;;;;;;;;;;;;-1.35;61.32;99509.03;5347117;26;20404;-79
2024/01/21 02:36:37;;;;;;;9.25;3.72;;;;;;;-1.19;60.57;99514.53;5346403;26;19964;-79
2024/01/21 02:39:04;;;;;;;15.00;4.82;;;;;;;-0.50;56.99;99507.88;5327390;26;20052;-79
2024/01/21 02:41:31;;;;;;;;;;;;;;;-0.36;55.80;99501.47;5346918;26;20079;-79
2024/01/21 02:43:59;;;;;;;11.82;4.07;;;;;;;-0.39;55.18;99492.13;5346571;26;19952;-79
2024/01/21 02:46:25;;;;;;;12.45;4.15;;;;;;;-0.33;54.87;99489.69;5346728;26;20060;-80
2024/01/21 02:48:52;;;;;;;;;;;;;;;-0.11;54.13;99493.59;5347325;26;20119;-79
2024/01/21 02:51:19;;;;;;;11.73;4.05;;;;;;;-0.44;54.50;99496.19;5346589;26;19975;-79
2024/01/21 02:53:46;;;;;;;11.43;4.03;;;;;;;0.03;53.49;99486.31;5346808;26;20045;-79
2024/01/21 02:56:26;;;;;;;;;;;;;;;0.06;53.09;99486.38;5346651;26;20395;-79
2024/01/21 02:58:53;;;;;;;13.27;3.97;;;;;;;0.13;52.61;99485.69;5346959;26;20019;-79
2024/01/21 03:01:20;;;;;;;11.85;4.20;;;;;;;0.13;52.62;99490.78;5346701;26;20459;-80
2024/01/21 03:03:48;;;;;;;11.27;3.90;;;;;;;0.36;51.73;99493.78;5346544;26;20058;-80
2024/01/21 03:06:15;;;;;;;11.88;4.05;;;;;;;0.02;52.35;99493.91;5346772;26;20060;-79
2024/01/21 03:08:42;;;;;;;11.85;4.10;;;;;;;0.03;52.67;99493.94;5346866;26;20364;-80
2024/01/21 03:11:08;;;;;;;;;;;;;;;-0.02;52.78;99492.94;5346610;26;20336;-80
2024/01/21 03:13:35;;;;;;;12.02;3.62;;;;;;;-0.04;52.71;99492.91;5346911;26;19956;-80
2024/01/21 03:16:02;;;;;;;13.05;4.60;;;;;;;-0.04;52.08;99492.91;5346631;26;20079;-79
2024/01/21 03:18:29;;;;;;;11.98;4.00;;;;;;;0.23;51.32;99497.75;5346399;26;20399;-80
2024/01/21 03:20:56;;;;;;;11.80;4.05;;;;;;;0.39;51.10;99493.84;5346726;26;20056;-80
2024/01/21 03:23:23;;;;;;;11.88;3.80;;;;;;;0.45;50.94;99491.44;5346721;26;20109;-80
2024/01/21 03:25:50;;;;;;;;;;;;;;;0.34;51.48;99494.59;5346614;26;20120;-79
2024/01/21 03:28:17;;;;;;;10.88;3.47;;;;;;;0.25;52.05;99500.31;5347043;26;19967;-80
2024/01/21 03:30:44;;;;;;;9.95;3.70;;;;;;;0.05;52.20;99492.28;5346649;26;20052;-80
2024/01/21 03:33:11;;;;;;;9.63;3.60;;;;;;;-0.28;53.07;99497.44;5346292;26;20402;-79
2024/01/21 03:35:38;;;;;;;11.12;3.83;;;;;;;0.24;52.37;99494.41;5346705;26;20122;-79
2024/01/21 03:38:05;;;;;;;12.95;4.10;;;;;;;0.11;52.51;99491.56;5346790;26;20066;-79
2024/01/21 03:40:32;;;;;;;9.15;3.60;;;;;;;-0.30;53.49;99497.41;5346001;26;20056;-79
2024/01/21 03:42:58;;;;;;;;;;;;;;;-0.81;55.36;99499.50;5346825;26;20104;-79
2024/01/21 03:45:25;;;;;;;10.27;3.90;;;;;;;-0.21;54.20;99493.34;5326613;26;20053;-79
2024/01/21 03:47:52;;;;;;;11.85;4.00;;;;;;;0.11;53.05;99492.44;5346663;26;20699;-79
2024/01/21 03:50:20;;;;;;;11.43;3.87;;;;;;;-0.45;54.76;99494.50;5346576;26;20048;-79
2024/01/21 03:52:47;;;;;;;9.45;3.72;;;;;;;-0.36;54.68;99488.78;5308537;26;20054;-80
2024/01/21 03:55:15;;;;;;;12.45;3.97;;;;;;;-0.83;55.68;99496.09;5346773;26;20065;-79
2024/01/21 03:57:42;;;;;;;10.48;4.20;;;;;;;-0.57;55.52;99485.72;5346431;26;20467;-80
2024/01/21 04:00:10;;;;;;;11.43;4.00;;;;;;;-1.08;57.04;99496.25;5346363;26;20116;-80
2024/01/21 04:02:37;;;;;;;11.68;4.87;;;;;;;-0.49;55.60;99491.84;5346600;26;20411;-79
2024/01/21 04:05:04;;;;;;;;;;;;;;;-0.56;55.73;99488.31;5347056;26;20092;-79
2024/01/21 04:07:31;;;;;;;12.13;4.05;;;;;;;-0.35;54.79;99486.28;5346412;26;20007;-79
2024/01/21 04:09:58;;;;;;;12.18;4.55;;;;;;;-0.57;55.45;99491.66;5346658;26;20108;-79
2024/01/21 04:12:26;;;;;;;13.10;4.15;;;;;;;-1.29;57.29;99494.84;5346447;26;20058;-79
2024/01/21 04:14:52;;;;;;;9.70;3.80;;;;;;;-0.73;56.05;99492.13;5326504;26;20061;-79
2024/01/21 04:17:21;;;;;;;11.40;4.40;;;;;;;-0.71;55.79;99490.47;5346368;26;20071;-79
2024/01/21 04:19:48;;;;;;;11.98;4.20;;;;;;;-0.73;54.92;99492.97;5346755;26;20525;-79
2024/01/21 04:22:16;;;;;;;9.70;3.62;;;;;;;-0.31;53.89;99499.91;5346035;26;20049;-79
2024/01/21 04:24:42;;;;;;;11.43;3.85;;;;;;;-0.50;53.82;99492.69;5346709;26;20102;-79
2024/01/21 04:27:09;;;;;;;11.77;3.83;;;;;;;-0.50;53.29;99497.75;5346355;26;20119;-79
2024/01/21 04:29:36;;;;;;;8.98;3.35;;;;;;;-0.16;52.16;99496.88;5346316;26;20063;-79
2024/01/21 04:32:03;;;;;;;12.23;3.67;;;;;;;-0.13;51.92;99499.47;5346464;26;20045;-79
2024/01/21 04:34:30;;;;;;;10.52;4.05;;;;;;;-0.20;51.79;99506.09;5346256;26;20170;-79
2024/01/21 04:36:57;;;;;;;10.95;3.75;;;;;;;-0.08;51.26;99500.44;5346297;26;20123;-79
2024/01/21 04:39:24;;;;;;;12.95;4.62;;;;;;;-0.23;52.00;99495.84;5346583;26;20091;-79
2024/01/21 04:41:51;;;;;;;10.50;4.10;;;;;;;-0.15;51.51;99493.50;5345808;26;20049;-80
2024/01/21 04:44:18;;;;;;;12.63;4.53;;;;;;;-0.33;51.86;99494.78;5346570;26;20108;-79
2024/01/21 04:46:45;;;;;;;;;;;;;;;-0.24;51.48;99495.81;5346798;26;20064;-79
2024/01/21 04:49:12;;;;;;;12.60;4.10;;;;;;;-0.02;51.26;99485.34;5346379;26;19983;-79
2024/01/21 04:51:38;;;;;;;10.27;3.80;;;;;;;0.42;49.76;99490.50;5346418;26;20327;-79
2024/01/21 04:54:05;;;;;;;;;;;;;;;0.18;50.25;99484.09;5346227;26;20119;-79
2024/01/21 04:56:33;;;;;;;9.98;3.42;;;;;;;-0.25;51.37;99482.28;5346083;26;19971;-79
2024/01/21 04:58:59;;;;;;;10.20;3.53;;;;;;;-0.17;51.14;99478.25;5346599;26;20062;-79
2024/01/21 05:01:26;;;;;;;;;;;;;;;-0.33;51.59;99487.16;5346557;26;20106;-79
2024/01/21 05:03:54;;;;;;;13.93;4.45;;;;;;;0.06;51.03;99493.13;5346273;26;19963;-79
2024/01/21 05:06:21;;;;;;;12.60;4.32;;;;;;;-0.62;52.04;99501.69;5346568;26;20451;-80
2024/01/21 05:08:47;;;;;;;13.52;5.32;;;;;;;-0.80;53.68;99516.44;5346383;26;20062;-79
2024/01/21 05:11:14;;;;;;;;;;;;;;;-0.92;53.77;99518.66;5346238;26;20048;-79
2024/01/21 05:13:41;;;;;;;18.65;6.20;;;;;;;-1.07;54.84;99528.34;5346616;26;19970;-79
2024/01/21 05:16:17;;;;;;;13.52;5.07;;;;;;;-0.40;52.88;99510.69;5346549;26;20205;-79
2024/01/21 05:18:45;;;;;;;15.30;5.70;;;;;;;-0.76;54.20;99512.28;5346049;26;20048;-80
2024/01/21 05:21:18;;;;;;;16.25;5.60;;;;;;;-0.85;56.00;99506.97;5346412;26;20051;-79
2024/01/21 05:23:45;;;;;;;14.73;5.43;;;;;;;-1.10;57.50;99510.56;5346187;26;20371;-79
2024/01/21 05:26:12;;;;;;;14.05;5.28;;;;;;;-1.03;57.77;99513.31;5326408;26;20071;-79
2024/01/21 05:28:40;;;;;;;17.00;5.97;;;;;;;-1.31;58.80;99523.47;5346428;26;20112;-79
2024/01/21 05:31:07;;;;;;;16.12;6.57;;;;;;;-1.58;59.61;99523.56;5345887;26;20063;-79
2024/01/21 05:33:34;;;;;;;18.55;8.13;;;;;;;-0.95;59.00;99521.13;5346423;26;20075;-80
2024/01/21 05:36:01;;;;;;;21.98;7.70;;;;;;;-1.32;61.29;99526.84;5346377;26;20052;-79
2024/01/21 05:38:28;;;;;;;18.95;8.27;;;;;;;-2.15;66.00;99526.03;5345998;26;20108;-79
2024/01/21 05:40:55;;;;;;;19.83;7.35;;;;;;;-2.29;68.42;99532.34;5345932;26;20107;-79
2024/01/21 05:43:22;;;;;;;21.50;9.07;;;;;;;-2.31;68.61;99541.56;5346398;26;20065;-79
2024/01/21 05:45:49;;;;;;;17.45;7.90;;;;;;;-2.75;69.74;99541.81;5345830;26;20060;-79
2024/01/21 05:48:16;;;;;;;21.33;8.00;;;;;;;-2.30;69.39;99553.38;5346361;26;20057;-79
2024/01/21 05:50:43;;;;;;;22.55;8.88;;;;;;;-2.42;69.36;99552.19;5346163;26;20399;-79
2024/01/21 05:53:09;;;;;;;20.25;8.30;;;;;;;-2.73;70.05;99551.97;5345862;26;20075;-79
2024/01/21 05:55:37;;;;;;;20.15;8.48;;;;;;;-2.77;71.45;99560.22;5346210;26;20072;-79
2024/01/21 05:58:03;;;;;;;22.27;8.85;;;;;;;-2.54;70.65;99561.03;5346158;26;20395;-79
2024/01/21 06:00:30;;;;;;;21.37;8.85;;;;;;;-2.74;71.79;99552.78;5345728;26;20055;-79
2024/01/21 06:02:57;;;;;;;18.33;7.68;;;;;;;-2.81;72.26;99541.59;5346289;26;20061;-79
2024/01/21 06:05:24;;;;;;;18.92;8.25;;;;;;;-2.67;71.99;99555.53;5345959;26;20572;-79
2024/01/21 06:07:51;;;;;;;18.05;7.43;;;;;;;-2.63;71.35;99564.09;5345844;26;20049;-79
2024/01/21 06:10:18;;;;;;;17.52;7.47;;;;;;;-2.90;72.36;99561.47;5346214;26;20040;-79
2024/01/21 06:12:45;;;;;;;22.77;8.82;;;;;;;-2.95;72.75;99566.37;5345773;26;20127;-79
2024/01/21 06:15:12;;;;;;;19.27;7.60;;;;;;;-2.70;72.32;99565.53;5346134;26;20060;-79
2024/01/21 06:17:39;;;;;;;19.12;7.53;;;;;;;-2.62;71.65;99566.69;5346047;26;20048;-79
2024/01/21 06:20:08;;;;;;;19.92;8.23;;;;;;;-2.69;71.89;99562.22;5345799;26;20044;-79
2024/01/21 06:22:38;;;;;;;22.23;8.63;;;;;;;-2.86;71.99;99563.31;5326549;26;20064;-79
2024/01/21 06:25:05;;;;;;;20.70;7.18;;;;;;;-2.47;71.76;99567.97;5346187;26;20088;-79
2024/01/21 06:27:32;;;;;;;22.80;8.93;;;;;;;-2.57;71.55;99564.28;5345708;26;20057;-79
2024/01/21 06:30:10;;;;;;;20.67;9.18;;;;;;;-2.49;71.95;99577.19;5346141;26;20044;-80
2024/01/21 06:32:37;;;;;;;20.75;9.52;;;;;;;-2.48;72.02;99579.75;5326463;26;20108;-79
2024/01/21 06:35:10;;;;;;;24.55;9.68;;;;;;;-2.63;71.95;99574.22;5326858;26;20065;-79
2024/01/21 06:37:38;;;;;;;27.42;9.43;;;;;;;-2.62;72.21;99575.91;5346125;26;20044;-80
2024/01/21 06:40:06;;;;;;;21.90;9.40;;;;;;;-2.81;73.83;99571.91;5318438;26;197171;-79
2024/01/21 06:42:33;;;;;;;24.33;9.50;;;;;;;-2.89;74.25;99568.25;5345515;26;20071;-80
2024/01/21 06:45:00;;;;;;;24.35;9.98;;;;;;;-2.82;74.30;99564.28;5346058;26;20061;-79
2024/01/21 06:47:26;;;;;;;22.30;10.38;;;;;;;-2.66;73.93;99556.41;5346034;26;20098;-80
2024/01/21 06:49:53;;;;;;;22.58;9.55;;;;;;;-2.60;73.48;99563.34;5345583;26;20391;-80
2024/01/21 06:52:20;;;;;;;25.10;9.90;;;;;;;-2.77;74.26;99562.75;5345875;26;20056;-79
2024/01/21 06:54:47;;;;;;;25.42;9.40;;;;;;;-2.66;73.54;99564.88;5345517;26;20378;-79
2024/01/21 06:57:14;;;;;;;26.35;9.68;;;;;;;-2.60;73.25;99565.87;5345735;26;20049;-79
2024/01/21 06:59:41;;;;;;;22.20;9.48;;;;;;;-2.62;73.29;99565.81;5345974;26;20068;-79
2024/01/21 07:02:07;;;;;;;21.62;8.55;;;;;;;-2.57;73.06;99558.37;5345455;26;20056;-79
2024/01/21 07:04:34;;;;;;;24.00;9.40;;;;;;;-2.34;71.72;99557.47;5345833;26;20068;-80
2024/01/21 07:07:01;;;;;;;21.65;8.50;;;;;;;-2.23;71.51;99568.81;5345604;26;20052;-79
2024/01/21 07:09:29;;;;;;;20.55;8.52;;;;;;;-2.51;72.46;99566.19;5345622;26;20107;-80
2024/01/21 07:11:56;;;;;;;23.30;8.90;;;;;;;-2.60;74.02;99576.84;5325920;26;20118;-80
2024/01/21 07:14:23;;;;;;;18.92;8.20;;;;;;;-1.81;72.09;99576.00;5345694;26;20082;-80
2024/01/21 07:16:50;;;;;;;19.35;7.93;;;;;;;-1.01;68.19;99580.06;5345286;26;20372;-79
2024/01/21 07:19:17;;;;;;;17.60;7.15;;;;;;;-0.16;64.02;99583.13;5346852;26;20512;-79
2024/01/21 07:21:44;;;;;;;17.20;6.82;;;;;;;0.86;59.34;99575.28;5346712;26;20064;-80
2024/01/21 07:24:11;;;;;;;17.17;7.00;;;;;;;1.82;55.38;99582.13;5346484;26;20068;-80
2024/01/21 07:26:38;;;;;;;16.77;6.85;;;;;;;2.58;52.59;99574.78;5346646;26;20061;-80
2024/01/21 07:29:04;;;;;;;;;;;;;;;2.84;50.77;99583.63;5347137;26;20099;-80
2024/01/21 07:31:31;;;;;;;16.42;7.00;;;;;;;3.15;49.72;99582.31;5346355;26;19959;-80
2024/01/21 07:33:58;;;;;;;16.60;6.70;;;;;;;4.00;47.93;99586.53;5346820;26;20426;-80
2024/01/21 07:36:25;;;;;;;16.12;6.35;;;;;;;4.87;45.43;99581.97;5346550;26;20114;-80
2024/01/21 07:38:52;;;;;;;15.70;6.75;;;;;;;6.39;43.65;99581.41;5346405;26;20071;-80
2024/01/21 07:41:19;;;;;;;13.32;5.65;;;;;;;6.84;40.74;99584.72;5346434;26;20076;-80
2024/01/21 07:43:46;;;;;;;;;;;;;;;7.19;39.53;99587.97;5346675;26;20060;-80
2024/01/21 07:46:13;;;;;;;16.30;6.20;;;;;;;7.00;39.19;99596.63;5327073;26;19963;-80
2024/01/21 07:48:40;;;;;;;14.90;6.62;;;;;;;6.08;41.41;99609.63;5346785;26;20483;-80
2024/01/21 07:51:07;;;;;;;15.98;7.45;;;;;;;5.67;43.32;99599.28;5346289;26;20122;-80
2024/01/21 07:53:34;;;;;;;;;;;;;;;5.54;43.85;99609.53;5347020;26;20064;-79
2024/01/21 07:56:00;;;;;;;19.70;8.45;;;;;;;5.12;45.26;99605.97;5346668;26;20015;-80
2024/01/21 07:58:28;;;;;;;19.23;8.63;;;;;;;5.04;46.36;99617.88;5346280;26;20074;-80
2024/01/21 08:00:54;;;;;;;17.48;8.73;;;;;;;4.64;46.79;99617.66;5346551;26;20057;-80
2024/01/21 08:03:21;;;;;;;19.15;8.48;;;;;;;5.12;46.42;99622.19;5346746;26;20060;-80
2024/01/21 08:05:48;;;;;;;19.60;8.93;;;;;;;6.02;45.19;99621.56;5346240;26;20066;-81
2024/01/21 08:08:15;;;;;;;19.52;8.68;;;;;;;6.24;44.01;99620.72;5346763;26;20051;-81
2024/01/21 08:10:42;;;;;;;18.30;8.45;;;;;;;6.27;43.47;99623.28;5346595;26;20095;-80
2024/01/21 08:13:09;;;;;;;;;;;;;;;6.28;43.87;99629.28;5346609;26;20057;-80
2024/01/21 08:15:37;;;;;;;16.77;8.27;;;;;;;6.11;44.03;99626.69;5346616;26;19960;-81
2024/01/21 08:18:05;;;;;;;17.52;8.50;;;;;;;6.42;43.78;99632.66;5346510;26;20053;-81
2024/01/21 08:20:32;;;;;;;18.98;8.63;;;;;;;5.73;45.08;99627.47;5346108;26;20056;-81
2024/01/21 08:22:58;;;;;;;;;;;;;;;5.78;46.03;99637.72;5347031;26;20424;-81
2024/01/21 08:25:25;;;;;;;20.00;9.07;;;;;;;5.56;45.54;99633.41;5346608;26;20273;-80
2024/01/21 08:27:52;;;;;;;19.10;9.75;;;;;;;5.19;46.99;99636.69;5346169;26;20055;-81
2024/01/21 08:30:19;;;;;;;22.90;10.38;;;;;;;4.88;47.95;99630.56;5346639;26;20118;-81
2024/01/21 08:32:46;;;;;;;19.80;9.75;;;;;;;4.56;48.40;99632.94;5346553;26;20072;-81
2024/01/21 08:35:13;;;;;;;20.60;10.02;;;;;;;4.87;47.85;99628.84;5346251;26;20458;-81
2024/01/21 08:37:41;;;;;;;19.37;9.48;;;;;;;4.67;47.50;99638.13;5346414;26;20073;-81
2024/01/21 08:40:09;;;;;;;18.60;9.07;;;;;;;4.48;48.59;99639.72;5346013;26;20114;-81
2024/01/21 08:42:36;;;;;;;21.98;9.55;;;;;;;4.61;48.79;99643.22;5346392;26;20117;-81
2024/01/21 08:45:04;;;;;;;20.70;9.05;;;;;;;4.83;47.89;99646.75;5346614;26;20053;-81
2024/01/21 08:47:30;;;;;;;17.87;8.50;;;;;;;4.80;48.05;99644.19;5346154;26;20052;-81
2024/01/21 08:49:58;;;;;;;19.02;9.75;;;;;;;4.83;47.73;99641.63;5346580;26;20556;-81
2024/01/21 08:52:25;;;;;;;18.67;8.38;;;;;;;5.22;47.19;99656.34;5326844;26;20126;-81
2024/01/21 08:54:52;;;;;;;17.87;8.80;;;;;;;5.22;47.51;99649.50;5346174;26;20400;-81
2024/01/21 08:57:19;;;;;;;20.37;9.25;;;;;;;5.27;47.73;99651.22;5346292;26;20074;-80
2024/01/21 08:59:46;;;;;;;19.98;9.20;;;;;;;5.55;47.80;99655.59;5346651;26;20067;-81
2024/01/21 09:02:13;;;;;;;19.23;9.50;;;;;;;5.91;47.34;99656.56;5346112;26;20094;-82
2024/01/21 09:04:43;;;;;;;17.15;8.15;;;;;;;6.13;45.53;99657.44;5346517;26;20044;-81
2024/01/21 09:07:10;;;;;;;17.17;8.18;;;;;;;6.49;44.07;99654.91;5346324;26;20048;-81
2024/01/21 09:09:37;;;;;;;16.62;6.97;;;;;;;6.32;44.20;99670.28;5346070;26;20356;-81
2024/01/21 09:12:04;;;;;;;16.58;6.90;;;;;;;6.82;42.37;99671.09;5346449;26;20113;-81
2024/01/21 09:14:34;;;;;;;14.82;7.12;;;;;;;7.21;41.45;99676.13;5346607;26;20324;-81
2024/01/21 09:17:01;;;;;;;;;;;;;;;7.89;39.58;99670.69;5346128;26;20098;-82
2024/01/21 09:19:27;;;;;;;14.40;6.62;;;;;;;8.06;40.39;99676.56;5346701;26;19968;-82
2024/01/21 09:21:54;;;;;;;14.75;6.15;;;;;;;8.23;39.36;99669.59;5346452;26;20059;-81
2024/01/21 09:24:21;;;;;;;14.82;6.25;;;;;;;8.25;38.94;99674.72;5346129;26;20460;-81
2024/01/21 09:26:48;;;;;;;;;;;;;;;8.39;39.26;99672.91;5346606;26;20112;-81
2024/01/21 09:29:15;;;;;;;10.02;4.40;;;;;;;8.96;38.50;99678.41;5346274;26;19980;-82
2024/01/21 09:31:42;;;;;;;14.15;5.22;;;;;;;9.46;36.29;99675.28;5346301;26;20429;-82
2024/01/21 09:34:09;;;;;;;11.30;4.75;;;;;;;9.72;35.42;99676.66;5346455;26;20056;-82
2024/01/21 09:36:37;;;;;;;11.20;4.87;;;;;;;10.15;33.72;99676.88;5345823;26;20105;-82
2024/01/21 09:39:05;;;;;;;11.93;4.65;;;;;;;10.35;33.02;99676.62;5346201;26;20103;-82
2024/01/21 09:41:49;;;;;;;12.77;4.97;;;;;;;10.95;32.62;99676.44;5345613;26;20060;-82
2024/01/21 09:44:20;;;;;;;12.23;4.40;;;;;;;11.13;32.63;99680.41;5345858;26;20048;-82
2024/01/21 09:46:55;;;;;;;13.48;5.62;;;;;;;11.14;32.18;99672.63;5346323;26;20079;-82
2024/01/21 09:49:24;;;;;;;14.55;6.70;;;;;;;11.21;33.60;99676.81;5346479;26;20069;-82
2024/01/21 09:51:52;;;;;;;14.55;6.85;;;;;;;11.27;34.84;99674.13;5345810;26;20064;-82
2024/01/21 09:54:20;;;;;;;13.48;6.35;;;;;;;11.47;34.41;99678.00;5346292;26;20079;-82
2024/01/21 09:56:48;;;;;;;16.45;7.53;;;;;;;11.32;33.83;99673.16;5345849;26;20042;-82
2024/01/21 09:59:15;;;;;;;15.73;6.45;;;;;;;11.15;34.81;99669.16;5346002;26;20053;-82
2024/01/21 10:01:43;;;;;;;17.15;6.82;;;;;;;11.14;33.99;99662.28;5346194;26;20060;-82
2024/01/21 10:04:11;;;;;;;15.25;6.80;;;;;;;11.10;34.44;99668.41;5326151;26;20051;-82
2024/01/21 10:06:38;;;;;;;16.08;7.18;;;;;;;10.91;34.62;99667.91;5326375;26;20449;-82
2024/01/21 10:09:21;;;;;;;13.82;6.35;;;;;;;10.52;35.07;99664.28;5346344;26;20065;-82
2024/01/21 10:11:49;;;;;;;14.57;6.40;;;;;;;10.82;34.37;99662.91;5326189;26;20064;-82
2024/01/21 10:14:16;;;;;;;13.35;5.50;;;;;;;11.02;33.97;99660.78;5346211;26;20062;-82
2024/01/21 10:16:43;;;;;;;;;;;;;;;11.09;33.26;99665.84;5346392;26;20045;-82
2024/01/21 10:19:24;;;;;;;13.07;5.50;;;;;;;10.67;33.20;99661.44;5326133;26;19981;-82
2024/01/21 10:21:53;;;;;;;11.52;4.87;;;;;;;11.06;33.38;99661.62;5326267;26;20064;-82
2024/01/21 10:24:23;;;;;;;14.35;6.18;;;;;;;11.06;32.80;99668.47;5326291;26;20066;-82
2024/01/21 10:26:51;;;;;;;11.35;4.97;;;;;;;10.91;33.22;99667.03;5345539;26;20058;-82
2024/01/21 10:29:18;;;;;;;12.98;4.78;;;;;;;11.00;32.95;99667.72;5346189;26;20061;-82
2024/01/21 10:31:45;;;;;;;11.93;4.75;;;;;;;10.98;32.12;99659.16;5345944;26;20127;-82
2024/01/21 10:34:13;;;;;;;14.00;5.35;;;;;;;11.35;32.10;99676.53;5345608;26;20052;-82
2024/01/21 10:36:43;;;;;;;11.02;4.78;;;;;;;11.27;32.21;99661.19;5345948;26;20059;-82
2024/01/21 10:39:14;;;;;;;12.37;5.18;;;;;;;10.89;32.06;99659.34;5345653;26;20309;-82
2024/01/21 10:41:41;;;;;;;11.52;5.07;;;;;;;11.26;32.13;99661.19;5325802;26;20060;-82
2024/01/21 10:44:08;;;;;;;13.18;6.30;;;;;;;11.40;32.40;99666.13;5326445;26;20360;-82
2024/01/21 10:46:37;;;;;;;12.63;5.47;;;;;;;11.38;32.32;99666.16;5325639;26;20048;-82
2024/01/21 10:49:05;;;;;;;12.55;5.25;;;;;;;11.95;31.28;99658.03;5346016;26;20110;-82
2024/01/21 10:51:32;;;;;;;11.82;5.22;;;;;;;12.18;31.61;99654.06;5326584;26;20076;-82
2024/01/21 10:53:59;;;;;;;12.48;5.53;;;;;;;12.36;31.54;99651.06;5346557;26;20048;-82
2024/01/21 10:56:26;;;;;;;12.88;6.00;;;;;;;12.44;32.03;99657.75;5346743;26;20090;-82
2024/01/21 10:58:53;;;;;;;14.93;6.25;;;;;;;12.36;32.21;99651.91;5346981;26;20076;-82
2024/01/21 11:01:21;;;;;;;12.75;5.90;;;;;;;12.32;32.45;99650.25;5346281;26;20056;-82
2024/01/21 11:03:50;;;;;;;12.93;5.68;;;;;;;12.70;32.06;99664.00;5346890;26;20391;-82
2024/01/21 11:06:17;;;;;;;12.63;5.45;;;;;;;12.73;31.81;99667.34;5346735;26;20041;-82
2024/01/21 11:08:45;;;;;;;13.48;5.60;;;;;;;12.38;31.62;99660.47;5346617;26;20067;-82
2024/01/21 11:11:11;;;;;;;13.15;6.20;;;;;;;12.44;32.32;99665.50;5326861;26;20060;-82
2024/01/21 11:13:48;;;;;;;12.80;5.95;;;;;;;12.94;31.46;99658.16;5346824;26;20407;-82
2024/01/21 11:16:30;;;;;;;16.95;5.95;;;;;;;11.61;31.97;99665.66;5346424;26;20103;-82
2024/01/21 11:19:05;;;;;;;16.08;6.00;;;;;;;12.40;30.80;99660.44;5346836;26;20068;-82
2024/01/21 11:21:40;;;;;;;13.40;5.53;;;;;;;13.03;30.78;99650.16;5346428;26;20400;-82
2024/01/21 11:24:16;;;;;;;10.98;4.95;;;;;;;12.35;30.35;99652.78;5327496;26;20124;-82
2024/01/21 11:26:47;;;;;;;13.80;5.18;;;;;;;12.39;30.61;99645.78;5327453;26;20053;-82
2024/01/21 11:29:27;;;;;;;15.77;6.50;;;;;;;12.81;30.25;99643.00;5346510;26;20128;-82
2024/01/21 11:32:02;;;;;;;11.88;5.40;;;;;;;12.41;29.69;99636.25;5327009;26;20052;-82
2024/01/21 11:34:38;;;;;;;11.07;4.95;;;;;;;12.98;30.39;99644.25;5346827;26;20505;-82
2024/01/21 11:37:09;;;;;;;12.48;4.90;;;;;;;13.60;29.44;99651.16;5346229;26;20052;-82
2024/01/21 11:39:37;;;;;;;12.00;4.57;;;;;;;12.83;27.77;99647.25;5326932;26;20075;-82